createdAt,value
2022-12-09T00:01:49.827Z,3.17
2022-12-09T00:04:18.554Z,3.15
2022-12-09T00:06:46.834Z,3.14
2022-12-09T00:09:18.440Z,3.12
2022-12-09T00:11:46.842Z,3.12
2022-12-09T00:14:14.855Z,3.12
2022-12-09T00:16:43.081Z,3.11
2022-12-09T00:19:11.222Z,3.09
2022-12-09T00:21:39.468Z,3.08
2022-12-09T00:24:11.156Z,3.08
2022-12-09T00:26:40.039Z,3.15
2022-12-09T00:29:08.612Z,3.16
2022-12-09T00:31:38.542Z,3.16
2022-12-09T00:34:10.478Z,3.15
2022-12-09T00:36:39.452Z,3.16
2022-12-09T00:39:07.799Z,3.19
2022-12-09T00:41:36.658Z,3.22
2022-12-09T00:44:05.726Z,3.24
2022-12-09T00:46:34.122Z,3.23
2022-12-09T00:49:04.564Z,3.22
2022-12-09T00:51:33.015Z,3.20
2022-12-09T00:54:01.545Z,3.20
2022-12-09T00:56:30.987Z,3.20
2022-12-09T00:58:59.447Z,3.17
2022-12-09T01:01:29.134Z,3.14
2022-12-09T01:03:58.305Z,3.09
2022-12-09T01:06:27.507Z,3.04
2022-12-09T01:08:56.014Z,3.00
2022-12-09T01:11:28.304Z,3.03
2022-12-09T01:14:01.348Z,3.04
2022-12-09T01:16:32.672Z,3.01
2022-12-09T01:19:04.359Z,3.00
2022-12-09T01:21:33.210Z,2.98
2022-12-09T01:24:06.299Z,2.94
2022-12-09T01:26:35.137Z,2.93
2022-12-09T01:29:03.502Z,2.93
2022-12-09T01:31:31.658Z,2.92
2022-12-09T01:33:59.971Z,2.89
2022-12-09T01:36:30.538Z,2.87
2022-12-09T01:39:00.198Z,2.84
2022-12-09T01:41:28.735Z,2.83
2022-12-09T01:44:31.369Z,2.81
2022-12-09T01:47:01.801Z,2.83
2022-12-09T01:49:48.323Z,2.91
2022-12-09T01:52:23.685Z,2.95
2022-12-09T01:54:53.441Z,2.95
2022-12-09T01:57:21.776Z,2.95
2022-12-09T01:59:50.460Z,2.97
2022-12-09T02:02:20.463Z,2.98
2022-12-09T02:04:50.438Z,3.00
2022-12-09T02:07:20.115Z,2.98
2022-12-09T02:09:53.684Z,2.99
2022-12-09T02:12:46.838Z,2.99
2022-12-09T02:15:39.595Z,2.97
2022-12-09T02:18:17.591Z,2.96
2022-12-09T02:20:56.792Z,2.95
2022-12-09T02:23:40.642Z,2.93
2022-12-09T02:26:16.109Z,2.93
2022-12-09T02:29:20.225Z,2.94
2022-12-09T02:32:07.594Z,3.01
2022-12-09T02:34:44.347Z,3.03
2022-12-09T02:37:19.016Z,3.04
2022-12-09T02:39:57.902Z,3.08
2022-12-09T02:42:33.081Z,3.09
2022-12-09T02:45:06.281Z,3.09
2022-12-09T02:47:41.590Z,3.09
2022-12-09T02:50:14.996Z,3.06
2022-12-09T02:52:46.780Z,3.00
2022-12-09T02:55:18.505Z,2.97
2022-12-09T02:57:51.145Z,2.96
2022-12-09T03:00:21.809Z,2.95
2022-12-09T03:02:54.173Z,2.95
2022-12-09T03:05:50.263Z,2.94
2022-12-09T03:08:55.976Z,2.93
2022-12-09T03:11:26.543Z,2.94
2022-12-09T03:14:21.361Z,2.99
2022-12-09T03:17:09.076Z,3.01
2022-12-09T03:19:50.583Z,3.03
2022-12-09T03:22:25.468Z,3.06
2022-12-09T03:25:06.281Z,3.08
2022-12-09T03:27:57.159Z,3.09
2022-12-09T03:30:25.873Z,3.09
2022-12-09T03:32:55.848Z,3.11
2022-12-09T03:35:29.948Z,3.10
2022-12-09T03:38:02.765Z,3.09
2022-12-09T03:40:32.569Z,3.09
2022-12-09T03:43:03.393Z,3.07
2022-12-09T03:45:32.631Z,3.04
2022-12-09T03:48:02.380Z,3.03
2022-12-09T03:50:35.898Z,3.01
2022-12-09T03:53:09.776Z,2.99
2022-12-09T03:56:01.778Z,2.99
2022-12-09T03:58:33.468Z,3.04
2022-12-09T04:01:03.094Z,3.06
2022-12-09T04:03:33.700Z,3.05
2022-12-09T04:06:02.257Z,3.07
2022-12-09T04:08:30.496Z,3.08
2022-12-09T04:10:58.564Z,3.09
2022-12-09T04:13:26.962Z,3.10
2022-12-09T04:15:55.412Z,3.11
2022-12-09T04:18:23.585Z,3.11
2022-12-09T04:20:51.922Z,3.10
2022-12-09T04:23:20.369Z,3.09
2022-12-09T04:25:49.320Z,3.07
2022-12-09T04:28:17.877Z,3.06
2022-12-09T04:30:47.747Z,3.03
2022-12-09T04:33:15.865Z,3.01
2022-12-09T04:35:43.908Z,2.98
2022-12-09T04:38:11.987Z,2.95
2022-12-09T04:40:40.367Z,2.94
2022-12-09T04:43:08.530Z,2.95
2022-12-09T04:45:37.198Z,3.00
2022-12-09T04:48:05.529Z,3.03
2022-12-09T04:50:34.045Z,3.01
2022-12-09T04:53:02.360Z,3.01
2022-12-09T04:55:31.620Z,3.02
2022-12-09T04:58:01.413Z,3.04
2022-12-09T05:00:29.647Z,3.03
2022-12-09T05:02:59.006Z,3.03
2022-12-09T05:05:27.723Z,2.98
2022-12-09T05:07:57.012Z,2.94
2022-12-09T05:10:25.972Z,2.90
2022-12-09T05:12:54.389Z,2.86
2022-12-09T05:15:22.998Z,2.82
2022-12-09T05:17:51.280Z,2.79
2022-12-09T05:20:19.536Z,2.81
2022-12-09T05:22:47.820Z,2.78
2022-12-09T05:25:16.349Z,2.73
2022-12-09T05:27:44.522Z,2.68
2022-12-09T05:30:13.481Z,2.65
2022-12-09T05:32:42.097Z,2.59
2022-12-09T05:35:10.480Z,2.52
2022-12-09T05:37:38.588Z,2.45
2022-12-09T05:40:07.912Z,2.41
2022-12-09T05:42:41.103Z,2.40
2022-12-09T05:45:11.226Z,2.36
2022-12-09T05:47:40.483Z,2.34
2022-12-09T05:50:10.045Z,2.36
2022-12-09T05:52:38.612Z,2.32
2022-12-09T05:55:08.958Z,2.28
2022-12-09T05:57:37.954Z,2.24
2022-12-09T06:00:08.066Z,2.20
2022-12-09T06:02:40.043Z,2.16
2022-12-09T06:05:09.769Z,2.13
2022-12-09T06:07:38.581Z,2.08
2022-12-09T06:10:08.509Z,2.03
2022-12-09T06:12:37.015Z,1.98
2022-12-09T06:15:10.438Z,1.93
2022-12-09T06:17:39.447Z,1.90
2022-12-09T06:20:08.386Z,1.92
2022-12-09T06:22:36.964Z,1.90
2022-12-09T06:25:05.551Z,1.85
2022-12-09T06:27:33.890Z,1.82
2022-12-09T06:30:03.370Z,1.80
2022-12-09T06:32:31.656Z,1.78
2022-12-09T06:35:01.135Z,1.73
2022-12-09T06:37:29.830Z,1.68
2022-12-09T06:39:58.349Z,1.63
2022-12-09T06:42:27.098Z,1.59
2022-12-09T06:44:55.714Z,1.57
2022-12-09T06:47:24.197Z,1.54
2022-12-09T06:49:52.598Z,1.57
2022-12-09T06:52:21.549Z,1.57
2022-12-09T06:54:50.006Z,1.58
2022-12-09T06:57:18.410Z,1.61
2022-12-09T06:59:46.891Z,1.64
2022-12-09T07:02:15.223Z,1.69
2022-12-09T07:04:44.441Z,1.71
2022-12-09T07:07:13.092Z,1.72
2022-12-09T07:09:41.934Z,1.74
2022-12-09T07:12:10.417Z,1.75
2022-12-09T07:14:38.745Z,1.75
2022-12-09T07:17:07.795Z,1.77
2022-12-09T07:19:36.300Z,1.84
2022-12-09T07:22:04.974Z,1.87
2022-12-09T07:24:33.417Z,1.89
2022-12-09T07:27:07.566Z,1.93
2022-12-09T07:29:37.921Z,1.97
2022-12-09T07:32:06.498Z,2.01
2022-12-09T07:34:35.131Z,2.03
2022-12-09T07:37:03.975Z,2.07
2022-12-09T07:39:32.344Z,2.09
2022-12-09T07:42:00.839Z,2.14
2022-12-09T07:44:31.105Z,2.16
2022-12-09T07:46:59.492Z,2.21
2022-12-09T07:49:28.211Z,2.25
2022-12-09T07:51:56.737Z,2.34
2022-12-09T07:54:25.273Z,2.40
2022-12-09T07:56:53.633Z,2.44
2022-12-09T07:59:21.810Z,2.53
2022-12-09T08:01:49.908Z,2.58
2022-12-09T08:04:18.213Z,2.64
2022-12-09T08:06:46.553Z,2.70
2022-12-09T08:09:15.044Z,2.75
2022-12-09T08:11:43.763Z,2.78
2022-12-09T08:14:13.566Z,2.79
2022-12-09T08:16:43.447Z,2.80
2022-12-09T08:19:13.505Z,2.82
2022-12-09T08:21:42.719Z,2.83
2022-12-09T08:24:13.078Z,2.82
2022-12-09T08:26:42.483Z,2.83
2022-12-09T08:29:13.640Z,2.84
2022-12-09T08:31:43.949Z,2.84
2022-12-09T08:34:13.546Z,2.85
2022-12-09T08:36:43.285Z,2.91
2022-12-09T08:39:14.980Z,2.96
2022-12-09T08:41:44.078Z,2.99
2022-12-09T08:44:14.410Z,3.03
2022-12-09T08:46:45.774Z,3.10
2022-12-09T08:49:19.151Z,3.15
2022-12-09T08:51:52.663Z,3.19
2022-12-09T08:54:21.538Z,3.22
2022-12-09T08:56:52.256Z,3.23
2022-12-09T08:59:21.510Z,3.25
2022-12-09T09:01:50.545Z,3.22
2022-12-09T09:04:21.567Z,3.20
2022-12-09T09:06:51.637Z,3.19
2022-12-09T09:09:21.728Z,3.19
2022-12-09T09:11:50.453Z,3.20
2022-12-09T09:14:18.568Z,3.22
2022-12-09T09:16:46.784Z,3.24
2022-12-09T09:19:19.525Z,3.27
2022-12-09T09:21:48.928Z,3.30
2022-12-09T09:24:19.793Z,3.30
2022-12-09T09:26:49.423Z,3.31
2022-12-09T09:29:20.503Z,3.31
2022-12-09T09:31:50.440Z,3.35
2022-12-09T09:34:19.351Z,3.43
2022-12-09T09:36:49.161Z,3.46
2022-12-09T09:39:19.345Z,3.50
2022-12-09T09:42:08.130Z,3.57
2022-12-09T09:44:46.967Z,3.63
2022-12-09T09:47:27.347Z,3.68
2022-12-09T09:50:41.991Z,3.71
2022-12-09T09:53:37.064Z,3.77
2022-12-09T09:56:17.687Z,3.83
2022-12-09T09:59:11.235Z,3.87
2022-12-09T10:01:39.672Z,3.91
2022-12-09T10:04:24.705Z,3.91
2022-12-09T10:07:07.436Z,3.88
2022-12-09T10:09:57.735Z,3.87
2022-12-09T10:12:34.774Z,3.87
2022-12-09T10:15:21.500Z,3.91
2022-12-09T10:17:53.810Z,3.97
2022-12-09T10:20:30.891Z,4.04
2022-12-09T10:23:14.685Z,4.11
2022-12-09T10:25:57.516Z,4.19
2022-12-09T10:28:32.005Z,4.25
2022-12-09T10:31:00.729Z,4.36
2022-12-09T10:33:40.908Z,4.44
2022-12-09T10:36:35.184Z,4.50
2022-12-09T10:39:05.285Z,4.61
2022-12-09T10:42:01.445Z,4.74
2022-12-09T10:44:29.818Z,4.89
2022-12-09T10:46:59.107Z,4.99
2022-12-09T10:49:28.779Z,5.04
2022-12-09T10:51:58.190Z,5.09
2022-12-09T10:54:36.607Z,5.14
2022-12-09T10:57:08.092Z,5.18
2022-12-09T10:59:37.443Z,5.22
2022-12-09T11:02:25.903Z,5.27
2022-12-09T11:04:54.706Z,5.33
2022-12-09T11:07:28.149Z,5.36
2022-12-09T11:09:56.704Z,5.32
2022-12-09T11:12:30.955Z,5.28
2022-12-09T11:15:05.305Z,5.25
2022-12-09T11:17:36.157Z,5.24
2022-12-09T11:20:07.891Z,5.26
2022-12-09T11:22:41.269Z,5.28
2022-12-09T11:25:13.209Z,5.33
2022-12-09T11:27:51.000Z,5.38
2022-12-09T11:30:57.613Z,5.42
2022-12-09T11:33:30.656Z,5.50
2022-12-09T11:36:10.761Z,5.53
2022-12-09T11:38:45.458Z,5.55
2022-12-09T11:41:53.724Z,5.58
2022-12-09T11:44:30.560Z,5.59
2022-12-09T11:47:14.093Z,5.60
2022-12-09T11:50:01.347Z,5.61
2022-12-09T11:52:31.302Z,5.60
2022-12-09T11:55:10.819Z,5.56
2022-12-09T11:57:46.248Z,5.55
2022-12-09T12:00:20.387Z,5.56
2022-12-09T12:03:25.829Z,5.56
2022-12-09T12:05:55.364Z,5.60
2022-12-09T12:08:40.679Z,5.58
2022-12-09T12:11:15.846Z,5.54
2022-12-09T12:13:49.398Z,5.52
2022-12-09T12:17:04.969Z,5.49
2022-12-09T12:19:39.678Z,5.48
2022-12-09T12:22:22.934Z,5.46
2022-12-09T12:25:18.460Z,5.42
2022-12-09T12:27:52.975Z,5.32
2022-12-09T12:30:24.328Z,5.27
2022-12-09T12:33:46.408Z,5.23
2022-12-09T12:35:58.345Z,5.15
2022-12-09T12:39:04.196Z,5.08
2022-12-09T12:41:55.536Z,5.03
2022-12-09T12:45:06.005Z,4.97
2022-12-09T12:47:48.109Z,4.86
2022-12-09T12:50:50.944Z,4.73
2022-12-09T12:53:37.964Z,4.64
2022-12-09T12:56:12.725Z,4.54
2022-12-09T12:58:53.138Z,4.47
2022-12-09T13:01:25.676Z,4.47
2022-12-09T13:04:12.061Z,4.46
2022-12-09T13:06:45.922Z,4.40
2022-12-09T13:09:22.270Z,4.32
2022-12-09T13:11:56.207Z,4.27
2022-12-09T13:14:51.926Z,4.21
2022-12-09T13:17:25.684Z,4.11
2022-12-09T13:19:58.856Z,4.01
2022-12-09T13:22:48.537Z,3.94
2022-12-09T13:25:56.830Z,3.87
2022-12-09T13:28:43.469Z,3.84
2022-12-09T13:31:11.636Z,3.81
2022-12-09T13:33:42.677Z,3.79
2022-12-09T13:36:42.750Z,3.78
2022-12-09T13:39:12.865Z,3.82
2022-12-09T13:42:08.800Z,3.80
2022-12-09T13:44:37.986Z,3.79
2022-12-09T13:47:24.716Z,3.78
2022-12-09T13:50:25.069Z,3.77
2022-12-09T13:53:01.055Z,3.76
2022-12-09T13:55:34.997Z,3.75
2022-12-09T13:58:28.109Z,3.74
2022-12-09T14:01:16.861Z,3.73
2022-12-09T14:03:51.002Z,3.71
2022-12-09T14:06:27.574Z,3.69
2022-12-09T14:09:01.214Z,3.70
2022-12-09T14:11:38.428Z,3.71
2022-12-09T14:14:25.208Z,3.78
2022-12-09T14:16:55.540Z,3.81
2022-12-09T14:19:27.285Z,3.81
2022-12-09T14:22:18.629Z,3.82
2022-12-09T14:24:56.949Z,3.84
2022-12-09T14:27:29.911Z,3.84
2022-12-09T14:30:23.733Z,3.80
2022-12-09T14:32:57.277Z,3.76
2022-12-09T14:35:49.199Z,3.75
2022-12-09T14:38:28.802Z,3.70
2022-12-09T14:40:56.847Z,3.67
2022-12-09T14:43:56.477Z,3.63
2022-12-09T14:46:36.556Z,3.59
2022-12-09T14:49:15.417Z,3.58
2022-12-09T14:52:04.328Z,3.62
2022-12-09T14:54:35.072Z,3.64
2022-12-09T14:57:17.499Z,3.63
2022-12-09T14:59:54.815Z,3.66
2022-12-09T15:02:30.255Z,3.67
2022-12-09T15:05:01.363Z,3.67
2022-12-09T15:07:31.954Z,3.65
2022-12-09T15:10:02.758Z,3.64
2022-12-09T15:12:39.733Z,3.64
2022-12-09T15:15:17.552Z,3.60
2022-12-09T15:17:47.542Z,3.58
2022-12-09T15:20:24.155Z,3.57
2022-12-09T15:22:55.797Z,3.59
2022-12-09T15:25:25.621Z,3.60
2022-12-09T15:28:21.493Z,3.57
2022-12-09T15:31:03.339Z,3.57
2022-12-09T15:33:39.861Z,3.56
2022-12-09T15:36:13.798Z,3.55
2022-12-09T15:38:49.281Z,3.57
2022-12-09T15:41:37.250Z,3.59
2022-12-09T15:44:13.341Z,3.58
2022-12-09T15:46:44.000Z,3.58
2022-12-09T15:49:16.336Z,3.56
2022-12-09T15:51:46.246Z,3.59
2022-12-09T15:54:21.082Z,3.62
2022-12-09T15:56:56.613Z,3.61
2022-12-09T15:59:38.816Z,3.62
2022-12-09T16:02:11.149Z,3.67
2022-12-09T16:04:44.842Z,3.70
2022-12-09T16:07:15.341Z,3.72
2022-12-09T16:10:26.964Z,3.73
2022-12-09T16:13:25.498Z,3.73
2022-12-09T16:15:56.462Z,3.75
2022-12-09T16:18:50.060Z,3.80
2022-12-09T16:21:25.457Z,3.80
2022-12-09T16:24:04.976Z,3.81
2022-12-09T16:26:37.562Z,3.84
2022-12-09T16:29:15.257Z,3.85
2022-12-09T16:31:43.512Z,3.85
2022-12-09T16:34:21.814Z,3.85
2022-12-09T16:36:55.316Z,3.84
2022-12-09T16:39:23.428Z,3.82
2022-12-09T16:41:51.480Z,3.83
2022-12-09T16:44:38.621Z,3.89
2022-12-09T16:47:16.429Z,3.88
2022-12-09T16:49:46.824Z,3.85
2022-12-09T16:52:22.363Z,3.85
2022-12-09T16:54:51.255Z,3.85
2022-12-09T16:57:20.828Z,3.84
2022-12-09T16:59:48.878Z,3.82
2022-12-09T17:02:22.849Z,3.79
2022-12-09T17:04:51.871Z,3.79
2022-12-09T17:07:19.980Z,3.83
2022-12-09T17:09:47.999Z,3.82
2022-12-09T17:12:16.139Z,3.82
2022-12-09T17:14:44.195Z,3.84
2022-12-09T17:17:12.254Z,3.85
2022-12-09T17:19:42.315Z,3.85
2022-12-09T17:22:11.413Z,3.83
2022-12-09T17:24:39.992Z,3.80
2022-12-09T17:27:08.051Z,3.79
2022-12-09T17:29:37.351Z,3.81
2022-12-09T17:32:05.865Z,3.79
2022-12-09T17:34:34.178Z,3.78
2022-12-09T17:37:02.239Z,3.78
2022-12-09T17:39:31.119Z,3.77
2022-12-09T17:41:59.223Z,3.75
2022-12-09T17:44:27.482Z,3.73
2022-12-09T17:46:55.570Z,3.70
2022-12-09T17:49:23.720Z,3.69
2022-12-09T17:51:51.926Z,3.69
2022-12-09T17:54:20.006Z,3.66
2022-12-09T17:56:48.076Z,3.63
2022-12-09T17:59:17.651Z,3.60
2022-12-09T18:01:48.831Z,3.59
2022-12-09T18:04:16.921Z,3.55
2022-12-09T18:06:46.352Z,3.49
2022-12-09T18:09:19.891Z,3.47
2022-12-09T18:11:48.017Z,3.47
2022-12-09T18:14:16.602Z,3.46
2022-12-09T18:16:49.320Z,3.43
2022-12-09T18:19:20.388Z,3.40
2022-12-09T18:21:48.447Z,3.36
2022-12-09T18:24:16.752Z,3.33
2022-12-09T18:26:45.524Z,3.29
2022-12-09T18:29:14.029Z,3.25
2022-12-09T18:31:45.786Z,3.26
2022-12-09T18:34:14.124Z,3.24
2022-12-09T18:36:42.214Z,3.22
2022-12-09T18:39:10.242Z,3.20
2022-12-09T18:41:38.271Z,3.17
2022-12-09T18:44:07.978Z,3.14
2022-12-09T18:46:39.278Z,3.11
2022-12-09T18:49:11.291Z,3.07
2022-12-09T18:51:40.080Z,3.04
2022-12-09T18:54:09.204Z,3.03
2022-12-09T18:56:37.488Z,3.01
2022-12-09T18:59:07.521Z,2.98
2022-12-09T19:01:40.866Z,2.95
2022-12-09T19:04:19.718Z,2.93
2022-12-09T19:06:51.081Z,2.91
2022-12-09T19:09:24.817Z,2.88
2022-12-09T19:11:53.283Z,2.86
2022-12-09T19:14:23.874Z,2.89
2022-12-09T19:16:52.701Z,2.85
2022-12-09T19:19:23.156Z,2.80
2022-12-09T19:21:51.970Z,2.78
2022-12-09T19:24:21.879Z,2.76
2022-12-09T19:26:53.248Z,2.73
2022-12-09T19:29:24.645Z,2.71
2022-12-09T19:31:54.043Z,2.72
2022-12-09T19:34:25.690Z,2.77
2022-12-09T19:36:56.679Z,2.75
2022-12-09T19:39:30.136Z,2.72
2022-12-09T19:41:59.173Z,2.69
2022-12-09T19:44:59.448Z,2.66
2022-12-09T19:47:16.316Z,2.63
2022-12-09T19:49:44.892Z,2.59
2022-12-09T19:52:13.051Z,2.56
2022-12-09T19:54:41.073Z,2.59
2022-12-09T19:57:09.102Z,2.58
2022-12-09T19:59:37.867Z,2.56
2022-12-09T20:02:08.033Z,2.55
2022-12-09T20:04:51.621Z,2.55
2022-12-09T20:07:20.449Z,2.55
2022-12-09T20:09:48.663Z,2.52
2022-12-09T20:12:16.862Z,2.51
2022-12-09T20:14:44.981Z,2.55
2022-12-09T20:17:13.103Z,2.54
2022-12-09T20:19:41.786Z,2.53
2022-12-09T20:22:09.879Z,2.51
2022-12-09T20:24:37.917Z,2.47
2022-12-09T20:27:05.998Z,2.45
2022-12-09T20:29:37.610Z,2.43
2022-12-09T20:32:08.715Z,2.40
2022-12-09T20:34:37.176Z,2.42
2022-12-09T20:37:05.828Z,2.40
2022-12-09T20:39:33.923Z,2.36
2022-12-09T20:42:02.018Z,2.34
2022-12-09T20:44:32.507Z,2.32
2022-12-09T20:47:00.592Z,2.30
2022-12-09T20:49:29.997Z,2.27
2022-12-09T20:51:58.650Z,2.26
2022-12-09T20:54:26.721Z,2.31
2022-12-09T20:56:54.949Z,2.33
2022-12-09T20:59:23.498Z,2.29
2022-12-09T21:01:51.885Z,2.30
2022-12-09T21:04:19.968Z,2.30
2022-12-09T21:06:48.052Z,2.28
2022-12-09T21:09:20.209Z,2.25
2022-12-09T21:11:50.078Z,2.24
2022-12-09T21:14:18.903Z,2.27
2022-12-09T21:16:47.866Z,2.26
2022-12-09T21:19:20.166Z,2.24
2022-12-09T21:21:50.821Z,2.22
2022-12-09T21:24:19.538Z,2.22
2022-12-09T21:26:47.599Z,2.22
2022-12-09T21:29:15.878Z,2.20
2022-12-09T21:31:44.781Z,2.27
2022-12-09T21:34:12.933Z,2.30
2022-12-09T21:36:43.431Z,2.28
2022-12-09T21:39:16.722Z,2.29
2022-12-09T21:41:44.976Z,2.30
2022-12-09T21:44:19.180Z,2.30
2022-12-09T21:46:47.253Z,2.26
2022-12-09T21:49:15.329Z,2.26
2022-12-09T21:51:43.654Z,2.31
2022-12-09T21:54:12.243Z,2.28
2022-12-09T21:56:40.274Z,2.23
2022-12-09T21:59:10.516Z,2.23
2022-12-09T22:01:41.232Z,2.22
2022-12-09T22:04:16.324Z,2.20
2022-12-09T22:06:47.287Z,2.19
2022-12-09T22:09:17.885Z,2.26
2022-12-09T22:11:46.340Z,2.29
2022-12-09T22:14:14.461Z,2.27
2022-12-09T22:16:44.629Z,2.27
2022-12-09T22:19:16.997Z,2.25
2022-12-09T22:21:45.621Z,2.24
2022-12-09T22:24:16.428Z,2.24
2022-12-09T22:26:45.345Z,2.26
2022-12-09T22:29:15.877Z,2.34
2022-12-09T22:31:45.355Z,2.33
2022-12-09T22:34:19.041Z,2.32
2022-12-09T22:36:49.228Z,2.33
2022-12-09T22:39:21.678Z,2.32
2022-12-09T22:41:50.614Z,2.30
2022-12-09T22:44:19.829Z,2.31
2022-12-09T22:46:48.522Z,2.36
2022-12-09T22:49:17.647Z,2.37
2022-12-09T22:51:47.495Z,2.35
2022-12-09T22:54:15.694Z,2.33
2022-12-09T22:56:44.849Z,2.33
2022-12-09T22:59:14.255Z,2.33
2022-12-09T23:01:46.172Z,2.32
2022-12-09T23:04:14.985Z,2.33
2022-12-09T23:06:43.413Z,2.38
2022-12-09T23:09:25.601Z,2.39
2022-12-09T23:11:54.157Z,2.39
2022-12-09T23:14:22.477Z,2.38
2022-12-09T23:16:50.557Z,2.37
2022-12-09T23:19:18.895Z,2.36
2022-12-09T23:21:47.034Z,2.35
2022-12-09T23:24:22.581Z,2.36
2022-12-09T23:26:54.940Z,2.39
2022-12-09T23:29:23.633Z,2.38
2022-12-09T23:31:51.709Z,2.38
2022-12-09T23:34:20.337Z,2.37
2022-12-09T23:36:48.533Z,2.37
2022-12-09T23:39:18.958Z,2.36
2022-12-09T23:41:48.233Z,2.35
2022-12-09T23:44:18.715Z,2.36
2022-12-09T23:46:47.476Z,2.39
2022-12-09T23:49:16.885Z,2.38
2022-12-09T23:51:45.321Z,2.37
2022-12-09T23:54:15.310Z,2.35
2022-12-09T23:56:48.227Z,2.34
2022-12-09T23:59:18.627Z,2.33
